sensor_id;sensor_type;location;lat;lon;timestamp;P1;durP1;ratioP1;P2;durP2;ratioP2
26435;SDS011;15351;52.408;16.826;2023-04-09T00:00:04;53.10;;;37.70;;
26435;SDS011;15351;52.408;16.826;2023-04-09T00:02:57;49.60;;;36.20;;
26435;SDS011;15351;52.408;16.826;2023-04-09T00:05:27;47.20;;;36.10;;
26435;SDS011;15351;52.408;16.826;2023-04-09T00:07:59;47.20;;;37.20;;
26435;SDS011;15351;52.408;16.826;2023-04-09T00:10:46;51.30;;;35.90;;
26435;SDS011;15351;52.408;16.826;2023-04-09T00:13:16;49.70;;;34.30;;
26435;SDS011;15351;52.408;16.826;2023-04-09T00:15:43;44.80;;;34.20;;
26435;SDS011;15351;52.408;16.826;2023-04-09T00:18:29;45.10;;;35.20;;
26435;SDS011;15351;52.408;16.826;2023-04-09T00:21:15;44.80;;;36.20;;
26435;SDS011;15351;52.408;16.826;2023-04-09T00:23:53;48.10;;;34.80;;
26435;SDS011;15351;52.408;16.826;2023-04-09T00:26:25;50.00;;;34.20;;
26435;SDS011;15351;52.408;16.826;2023-04-09T00:28:51;43.40;;;33.90;;
26435;SDS011;15351;52.408;16.826;2023-04-09T00:31:19;44.80;;;34.90;;
26435;SDS011;15351;52.408;16.826;2023-04-09T00:33:45;45.70;;;36.30;;
26435;SDS011;15351;52.408;16.826;2023-04-09T00:36:12;48.70;;;33.90;;
26435;SDS011;15351;52.408;16.826;2023-04-09T00:38:39;47.90;;;33.20;;
26435;SDS011;15351;52.408;16.826;2023-04-09T00:41:16;43.80;;;34.30;;
26435;SDS011;15351;52.408;16.826;2023-04-09T00:43:44;43.10;;;33.80;;
26435;SDS011;15351;52.408;16.826;2023-04-09T00:46:11;44.20;;;35.30;;
26435;SDS011;15351;52.408;16.826;2023-04-09T00:48:46;46.60;;;32.90;;
26435;SDS011;15351;52.408;16.826;2023-04-09T00:51:13;47.20;;;33.30;;
26435;SDS011;15351;52.408;16.826;2023-04-09T00:53:39;39.70;;;32.10;;
26435;SDS011;15351;52.408;16.826;2023-04-09T00:56:06;43.10;;;34.30;;
26435;SDS011;15351;52.408;16.826;2023-04-09T00:58:33;43.10;;;34.80;;
26435;SDS011;15351;52.408;16.826;2023-04-09T01:00:59;47.70;;;34.30;;
26435;SDS011;15351;52.408;16.826;2023-04-09T01:03:27;46.90;;;32.30;;
26435;SDS011;15351;52.408;16.826;2023-04-09T01:09:47;44.20;;;34.50;;
26435;SDS011;15351;52.408;16.826;2023-04-09T01:12:46;50.50;;;34.00;;
26435;SDS011;15351;52.408;16.826;2023-04-09T01:15:32;48.40;;;33.30;;
26435;SDS011;15351;52.408;16.826;2023-04-09T01:27:20;46.20;;;31.20;;
26435;SDS011;15351;52.408;16.826;2023-04-09T01:30:20;42.40;;;29.90;;
26435;SDS011;15351;52.408;16.826;2023-04-09T01:33:09;39.30;;;31.90;;
26435;SDS011;15351;52.408;16.826;2023-04-09T01:36:42;43.10;;;33.30;;
26435;SDS011;15351;52.408;16.826;2023-04-09T01:39:09;42.90;;;30.10;;
26435;SDS011;15351;52.408;16.826;2023-04-09T01:41:39;41.40;;;29.40;;
26435;SDS011;15351;52.408;16.826;2023-04-09T01:44:06;36.60;;;29.80;;
26435;SDS011;15351;52.408;16.826;2023-04-09T01:46:54;38.30;;;31.20;;
26435;SDS011;15351;52.408;16.826;2023-04-09T01:49:30;43.40;;;31.00;;
26435;SDS011;15351;52.408;16.826;2023-04-09T01:51:58;40.60;;;28.80;;
26435;SDS011;15351;52.408;16.826;2023-04-09T01:54:47;39.40;;;28.20;;
26435;SDS011;15351;52.408;16.826;2023-04-09T01:57:29;36.20;;;29.90;;
26435;SDS011;15351;52.408;16.826;2023-04-09T02:00:03;38.80;;;30.50;;
26435;SDS011;15351;52.408;16.826;2023-04-09T02:06:34;39.50;;;28.70;;
26435;SDS011;15351;52.408;16.826;2023-04-09T02:09:42;36.90;;;29.80;;
26435;SDS011;15351;52.408;16.826;2023-04-09T02:12:16;38.90;;;30.60;;
26435;SDS011;15351;52.408;16.826;2023-04-09T02:14:49;41.40;;;29.50;;
26435;SDS011;15351;52.408;16.826;2023-04-09T02:17:57;37.90;;;27.40;;
26435;SDS011;15351;52.408;16.826;2023-04-09T02:20:29;35.10;;;29.30;;
26435;SDS011;15351;52.408;16.826;2023-04-09T02:23:14;36.30;;;30.10;;
26435;SDS011;15351;52.408;16.826;2023-04-09T02:25:43;39.40;;;30.40;;
26435;SDS011;15351;52.408;16.826;2023-04-09T02:28:33;40.10;;;28.90;;
26435;SDS011;15351;52.408;16.826;2023-04-09T02:31:00;39.80;;;29.10;;
26435;SDS011;15351;52.408;16.826;2023-04-09T02:37:14;42.50;;;32.50;;
26435;SDS011;15351;52.408;16.826;2023-04-09T02:39:54;41.40;;;29.30;;
26435;SDS011;15351;52.408;16.826;2023-04-09T02:42:30;40.10;;;28.70;;
26435;SDS011;15351;52.408;16.826;2023-04-09T02:45:26;37.80;;;29.90;;
26435;SDS011;15351;52.408;16.826;2023-04-09T02:47:53;38.90;;;31.30;;
26435;SDS011;15351;52.408;16.826;2023-04-09T02:50:45;41.50;;;30.40;;
26435;SDS011;15351;52.408;16.826;2023-04-09T03:00:51;37.10;;;30.50;;
26435;SDS011;15351;52.408;16.826;2023-04-09T03:03:34;39.60;;;28.70;;
26435;SDS011;15351;52.408;16.826;2023-04-09T03:06:38;42.00;;;29.10;;
26435;SDS011;15351;52.408;16.826;2023-04-09T03:12:46;36.70;;;29.30;;
26435;SDS011;15351;52.408;16.826;2023-04-09T03:15:32;40.50;;;28.30;;
26435;SDS011;15351;52.408;16.826;2023-04-09T03:21:13;34.00;;;27.40;;
26435;SDS011;15351;52.408;16.826;2023-04-09T03:24:58;36.00;;;28.90;;
26435;SDS011;15351;52.408;16.826;2023-04-09T03:27:46;38.20;;;28.10;;
26435;SDS011;15351;52.408;16.826;2023-04-09T03:30:32;39.80;;;27.30;;
26435;SDS011;15351;52.408;16.826;2023-04-09T03:33:15;38.00;;;27.90;;
26435;SDS011;15351;52.408;16.826;2023-04-09T03:36:05;36.30;;;29.30;;
26435;SDS011;15351;52.408;16.826;2023-04-09T03:41:41;38.10;;;28.10;;
26435;SDS011;15351;52.408;16.826;2023-04-09T03:44:37;38.90;;;27.20;;
26435;SDS011;15351;52.408;16.826;2023-04-09T03:47:38;35.50;;;28.70;;
26435;SDS011;15351;52.408;16.826;2023-04-09T04:02:15;38.50;;;29.90;;
26435;SDS011;15351;52.408;16.826;2023-04-09T04:05:27;42.10;;;28.40;;
26435;SDS011;15351;52.408;16.826;2023-04-09T04:08:27;38.90;;;27.80;;
26435;SDS011;15351;52.408;16.826;2023-04-09T04:11:14;35.50;;;28.50;;
26435;SDS011;15351;52.408;16.826;2023-04-09T04:13:53;37.30;;;29.50;;
26435;SDS011;15351;52.408;16.826;2023-04-09T04:16:22;40.40;;;29.00;;
26435;SDS011;15351;52.408;16.826;2023-04-09T04:18:50;39.20;;;28.00;;
26435;SDS011;15351;52.408;16.826;2023-04-09T04:21:26;37.10;;;27.60;;
26435;SDS011;15351;52.408;16.826;2023-04-09T04:24:02;35.40;;;29.00;;
26435;SDS011;15351;52.408;16.826;2023-04-09T04:26:40;38.80;;;30.30;;
26435;SDS011;15351;52.408;16.826;2023-04-09T04:29:07;38.70;;;28.40;;
26435;SDS011;15351;52.408;16.826;2023-04-09T04:34:49;34.40;;;28.40;;
26435;SDS011;15351;52.408;16.826;2023-04-09T04:37:43;38.30;;;30.00;;
26435;SDS011;15351;52.408;16.826;2023-04-09T04:40:24;39.40;;;29.20;;
26435;SDS011;15351;52.408;16.826;2023-04-09T04:43:17;40.80;;;29.00;;
26435;SDS011;15351;52.408;16.826;2023-04-09T04:46:00;39.00;;;28.00;;
26435;SDS011;15351;52.408;16.826;2023-04-09T04:48:46;36.60;;;29.50;;
26435;SDS011;15351;52.408;16.826;2023-04-09T04:51:18;37.70;;;30.10;;
26435;SDS011;15351;52.408;16.826;2023-04-09T04:54:10;42.50;;;29.90;;
26435;SDS011;15351;52.408;16.826;2023-04-09T04:57:45;42.20;;;29.50;;
26435;SDS011;15351;52.408;16.826;2023-04-09T05:00:16;40.00;;;31.00;;
26435;SDS011;15351;52.408;16.826;2023-04-09T05:02:55;44.40;;;33.50;;
26435;SDS011;15351;52.408;16.826;2023-04-09T05:05:40;47.50;;;30.90;;
26435;SDS011;15351;52.408;16.826;2023-04-09T05:08:16;50.30;;;32.00;;
26435;SDS011;15351;52.408;16.826;2023-04-09T05:10:56;52.20;;;32.20;;
26435;SDS011;15351;52.408;16.826;2023-04-09T05:13:25;48.80;;;34.20;;
26435;SDS011;15351;52.408;16.826;2023-04-09T05:15:55;53.40;;;35.80;;
26435;SDS011;15351;52.408;16.826;2023-04-09T05:18:34;53.20;;;32.80;;
26435;SDS011;15351;52.408;16.826;2023-04-09T05:21:02;53.90;;;33.00;;
26435;SDS011;15351;52.408;16.826;2023-04-09T05:23:31;53.70;;;32.40;;
26435;SDS011;15351;52.408;16.826;2023-04-09T05:26:09;51.70;;;34.60;;
26435;SDS011;15351;52.408;16.826;2023-04-09T05:29:06;50.80;;;34.10;;
26435;SDS011;15351;52.408;16.826;2023-04-09T05:32:15;56.30;;;31.40;;
26435;SDS011;15351;52.408;16.826;2023-04-09T05:34:41;49.40;;;30.50;;
26435;SDS011;15351;52.408;16.826;2023-04-09T05:37:07;48.40;;;30.00;;
26435;SDS011;15351;52.408;16.826;2023-04-09T05:39:34;50.50;;;31.40;;
26435;SDS011;15351;52.408;16.826;2023-04-09T05:42:00;47.80;;;31.30;;
26435;SDS011;15351;52.408;16.826;2023-04-09T05:44:39;45.20;;;31.10;;
26435;SDS011;15351;52.408;16.826;2023-04-09T05:47:13;46.10;;;28.50;;
26435;SDS011;15351;52.408;16.826;2023-04-09T05:50:01;42.70;;;28.10;;
26435;SDS011;15351;52.408;16.826;2023-04-09T05:52:28;41.90;;;27.30;;
26435;SDS011;15351;52.408;16.826;2023-04-09T05:54:55;41.20;;;26.60;;
26435;SDS011;15351;52.408;16.826;2023-04-09T05:58:12;39.00;;;29.10;;
26435;SDS011;15351;52.408;16.826;2023-04-09T06:01:13;41.60;;;27.50;;
26435;SDS011;15351;52.408;16.826;2023-04-09T06:03:50;39.10;;;26.40;;
26435;SDS011;15351;52.408;16.826;2023-04-09T06:06:49;38.60;;;25.70;;
26435;SDS011;15351;52.408;16.826;2023-04-09T06:09:16;39.80;;;26.90;;
26435;SDS011;15351;52.408;16.826;2023-04-09T06:11:45;37.20;;;27.90;;
26435;SDS011;15351;52.408;16.826;2023-04-09T06:14:11;38.00;;;28.60;;
26435;SDS011;15351;52.408;16.826;2023-04-09T06:16:41;42.40;;;27.80;;
26435;SDS011;15351;52.408;16.826;2023-04-09T06:19:14;40.70;;;27.40;;
26435;SDS011;15351;52.408;16.826;2023-04-09T06:22:08;42.50;;;27.10;;
26435;SDS011;15351;52.408;16.826;2023-04-09T06:24:46;38.40;;;26.60;;
26435;SDS011;15351;52.408;16.826;2023-04-09T06:27:22;40.10;;;29.40;;
26435;SDS011;15351;52.408;16.826;2023-04-09T06:29:52;40.50;;;30.20;;
26435;SDS011;15351;52.408;16.826;2023-04-09T06:32:23;44.00;;;28.40;;
26435;SDS011;15351;52.408;16.826;2023-04-09T06:34:59;42.50;;;27.50;;
26435;SDS011;15351;52.408;16.826;2023-04-09T06:37:30;43.10;;;27.20;;
26435;SDS011;15351;52.408;16.826;2023-04-09T06:39:57;39.40;;;28.80;;
26435;SDS011;15351;52.408;16.826;2023-04-09T06:42:24;40.50;;;29.90;;
26435;SDS011;15351;52.408;16.826;2023-04-09T06:44:57;43.50;;;28.20;;
26435;SDS011;15351;52.408;16.826;2023-04-09T06:47:47;41.40;;;27.50;;
26435;SDS011;15351;52.408;16.826;2023-04-09T06:57:16;39.60;;;29.10;;
26435;SDS011;15351;52.408;16.826;2023-04-09T07:02:44;41.80;;;27.90;;
26435;SDS011;15351;52.408;16.826;2023-04-09T07:05:19;39.80;;;26.20;;
26435;SDS011;15351;52.408;16.826;2023-04-09T07:07:45;36.80;;;27.70;;
26435;SDS011;15351;52.408;16.826;2023-04-09T07:14:07;37.60;;;25.30;;
26435;SDS011;15351;52.408;16.826;2023-04-09T07:16:34;35.60;;;24.10;;
26435;SDS011;15351;52.408;16.826;2023-04-09T07:19:02;36.80;;;24.60;;
26435;SDS011;15351;52.408;16.826;2023-04-09T07:21:44;33.70;;;24.90;;
26435;SDS011;15351;52.408;16.826;2023-04-09T07:24:14;36.40;;;26.50;;
26435;SDS011;15351;52.408;16.826;2023-04-09T07:26:41;39.20;;;25.30;;
26435;SDS011;15351;52.408;16.826;2023-04-09T07:29:13;38.30;;;25.80;;
26435;SDS011;15351;52.408;16.826;2023-04-09T07:31:53;40.80;;;26.40;;
26435;SDS011;15351;52.408;16.826;2023-04-09T07:34:30;37.90;;;25.90;;
26435;SDS011;15351;52.408;16.826;2023-04-09T07:36:57;37.40;;;28.20;;
26435;SDS011;15351;52.408;16.826;2023-04-09T07:39:27;39.00;;;26.30;;
26435;SDS011;15351;52.408;16.826;2023-04-09T07:42:03;36.80;;;25.60;;
26435;SDS011;15351;52.408;16.826;2023-04-09T07:44:44;37.90;;;26.30;;
26435;SDS011;15351;52.408;16.826;2023-04-09T07:49:57;33.50;;;25.90;;
26435;SDS011;15351;52.408;16.826;2023-04-09T07:52:52;35.80;;;26.00;;
26435;SDS011;15351;52.408;16.826;2023-04-09T07:59:01;31.80;;;23.50;;
26435;SDS011;15351;52.408;16.826;2023-04-09T08:02:07;32.20;;;25.90;;
26435;SDS011;15351;52.408;16.826;2023-04-09T08:07:50;34.10;;;24.10;;
26435;SDS011;15351;52.408;16.826;2023-04-09T08:10:28;31.70;;;23.30;;
26435;SDS011;15351;52.408;16.826;2023-04-09T08:12:57;31.20;;;24.50;;
26435;SDS011;15351;52.408;16.826;2023-04-09T08:15:28;30.10;;;24.00;;
26435;SDS011;15351;52.408;16.826;2023-04-09T08:19:12;30.50;;;22.60;;
26435;SDS011;15351;52.408;16.826;2023-04-09T08:22:39;30.00;;;22.30;;
26435;SDS011;15351;52.408;16.826;2023-04-09T08:30:20;30.90;;;24.20;;
26435;SDS011;15351;52.408;16.826;2023-04-09T08:33:17;31.80;;;23.00;;
26435;SDS011;15351;52.408;16.826;2023-04-09T08:35:53;31.00;;;22.80;;
26435;SDS011;15351;52.408;16.826;2023-04-09T08:39:09;28.10;;;23.40;;
26435;SDS011;15351;52.408;16.826;2023-04-09T08:44:46;31.90;;;22.80;;
26435;SDS011;15351;52.408;16.826;2023-04-09T08:47:24;31.60;;;22.90;;
26435;SDS011;15351;52.408;16.826;2023-04-09T08:50:41;28.40;;;23.30;;
26435;SDS011;15351;52.408;16.826;2023-04-09T08:56:08;26.90;;;22.90;;
26435;SDS011;15351;52.408;16.826;2023-04-09T08:59:17;29.30;;;22.10;;
26435;SDS011;15351;52.408;16.826;2023-04-09T09:02:20;26.20;;;20.20;;
26435;SDS011;15351;52.408;16.826;2023-04-09T09:05:00;24.60;;;20.40;;
26435;SDS011;15351;52.408;16.826;2023-04-09T09:07:44;25.00;;;21.20;;
26435;SDS011;15351;52.408;16.826;2023-04-09T09:10:44;26.30;;;20.20;;
26435;SDS011;15351;52.408;16.826;2023-04-09T09:13:44;26.70;;;20.50;;
26435;SDS011;15351;52.408;16.826;2023-04-09T09:16:11;24.50;;;19.60;;
26435;SDS011;15351;52.408;16.826;2023-04-09T09:18:43;26.90;;;22.40;;
26435;SDS011;15351;52.408;16.826;2023-04-09T09:21:29;25.40;;;21.60;;
26435;SDS011;15351;52.408;16.826;2023-04-09T09:24:04;26.30;;;22.20;;
26435;SDS011;15351;52.408;16.826;2023-04-09T09:27:08;28.40;;;22.20;;
26435;SDS011;15351;52.408;16.826;2023-04-09T09:30:18;24.50;;;19.00;;
26435;SDS011;15351;52.408;16.826;2023-04-09T09:33:07;22.70;;;18.40;;
26435;SDS011;15351;52.408;16.826;2023-04-09T09:35:45;21.40;;;18.80;;
26435;SDS011;15351;52.408;16.826;2023-04-09T09:38:27;21.80;;;19.50;;
26435;SDS011;15351;52.408;16.826;2023-04-09T09:45:02;18.90;;;16.50;;
26435;SDS011;15351;52.408;16.826;2023-04-09T09:48:12;19.10;;;16.60;;
26435;SDS011;15351;52.408;16.826;2023-04-09T09:50:39;20.60;;;17.70;;
26435;SDS011;15351;52.408;16.826;2023-04-09T09:53:39;19.40;;;17.00;;
26435;SDS011;15351;52.408;16.826;2023-04-09T09:56:13;19.90;;;15.50;;
26435;SDS011;15351;52.408;16.826;2023-04-09T10:01:42;17.10;;;15.00;;
26435;SDS011;15351;52.408;16.826;2023-04-09T10:04:29;18.20;;;15.80;;
26435;SDS011;15351;52.408;16.826;2023-04-09T10:07:09;18.60;;;15.70;;
26435;SDS011;15351;52.408;16.826;2023-04-09T10:10:16;19.20;;;15.80;;
26435;SDS011;15351;52.408;16.826;2023-04-09T10:12:45;19.60;;;15.10;;
26435;SDS011;15351;52.408;16.826;2023-04-09T10:18:11;18.00;;;15.70;;
26435;SDS011;15351;52.408;16.826;2023-04-09T10:20:48;19.00;;;16.50;;
26435;SDS011;15351;52.408;16.826;2023-04-09T10:26:31;21.00;;;16.50;;
26435;SDS011;15351;52.408;16.826;2023-04-09T10:35:50;19.90;;;17.20;;
26435;SDS011;15351;52.408;16.826;2023-04-09T10:42:44;20.20;;;16.80;;
26435;SDS011;15351;52.408;16.826;2023-04-09T10:45:42;20.00;;;15.90;;
26435;SDS011;15351;52.408;16.826;2023-04-09T10:48:40;19.20;;;17.10;;
26435;SDS011;15351;52.408;16.826;2023-04-09T10:51:17;20.70;;;17.30;;
26435;SDS011;15351;52.408;16.826;2023-04-09T10:58:50;20.40;;;18.00;;
26435;SDS011;15351;52.408;16.826;2023-04-09T11:02:06;20.60;;;16.70;;
26435;SDS011;15351;52.408;16.826;2023-04-09T11:08:18;18.30;;;16.20;;
26435;SDS011;15351;52.408;16.826;2023-04-09T11:11:59;18.40;;;16.40;;
26435;SDS011;15351;52.408;16.826;2023-04-09T11:18:18;19.70;;;15.80;;
26435;SDS011;15351;52.408;16.826;2023-04-09T11:21:25;19.20;;;16.80;;
26435;SDS011;15351;52.408;16.826;2023-04-09T11:24:05;19.50;;;16.90;;
26435;SDS011;15351;52.408;16.826;2023-04-09T11:26:46;17.70;;;15.70;;
26435;SDS011;15351;52.408;16.826;2023-04-09T11:29:48;18.40;;;16.50;;
26435;SDS011;15351;52.408;16.826;2023-04-09T11:32:43;19.90;;;16.30;;
26435;SDS011;15351;52.408;16.826;2023-04-09T11:35:17;19.00;;;15.50;;
26435;SDS011;15351;52.408;16.826;2023-04-09T11:38:09;17.40;;;15.40;;
26435;SDS011;15351;52.408;16.826;2023-04-09T11:40:40;19.10;;;16.40;;
26435;SDS011;15351;52.408;16.826;2023-04-09T11:46:44;19.40;;;15.50;;
26435;SDS011;15351;52.408;16.826;2023-04-09T12:16:55;17.40;;;15.00;;
26435;SDS011;15351;52.408;16.826;2023-04-09T12:23:03;16.10;;;14.40;;
26435;SDS011;15351;52.408;16.826;2023-04-09T12:25:43;16.60;;;14.70;;
26435;SDS011;15351;52.408;16.826;2023-04-09T12:28:14;17.80;;;15.40;;
26435;SDS011;15351;52.408;16.826;2023-04-09T12:44:06;16.30;;;14.60;;
26435;SDS011;15351;52.408;16.826;2023-04-09T12:47:35;17.00;;;15.20;;
26435;SDS011;15351;52.408;16.826;2023-04-09T12:51:03;17.90;;;15.20;;
26435;SDS011;15351;52.408;16.826;2023-04-09T12:57:48;16.20;;;14.50;;
26435;SDS011;15351;52.408;16.826;2023-04-09T13:03:30;16.60;;;14.80;;
26435;SDS011;15351;52.408;16.826;2023-04-09T13:06:30;16.70;;;15.00;;
26435;SDS011;15351;52.408;16.826;2023-04-09T13:10:21;17.40;;;15.60;;
26435;SDS011;15351;52.408;16.826;2023-04-09T13:13:11;18.40;;;15.50;;
26435;SDS011;15351;52.408;16.826;2023-04-09T13:35:10;15.80;;;14.20;;
26435;SDS011;15351;52.408;16.826;2023-04-09T13:41:03;16.60;;;14.90;;
26435;SDS011;15351;52.408;16.826;2023-04-09T13:44:26;17.60;;;14.30;;
26435;SDS011;15351;52.408;16.826;2023-04-09T13:51:01;15.90;;;14.20;;
26435;SDS011;15351;52.408;16.826;2023-04-09T13:53:58;15.50;;;13.90;;
26435;SDS011;15351;52.408;16.826;2023-04-09T13:56:46;15.80;;;14.10;;
26435;SDS011;15351;52.408;16.826;2023-04-09T13:59:55;15.80;;;14.10;;
26435;SDS011;15351;52.408;16.826;2023-04-09T14:03:01;15.80;;;14.10;;
26435;SDS011;15351;52.408;16.826;2023-04-09T14:05:45;15.00;;;13.50;;
26435;SDS011;15351;52.408;16.826;2023-04-09T14:08:15;15.50;;;13.90;;
26435;SDS011;15351;52.408;16.826;2023-04-09T14:10:48;16.50;;;14.40;;
26435;SDS011;15351;52.408;16.826;2023-04-09T14:16:44;14.90;;;13.30;;
26435;SDS011;15351;52.408;16.826;2023-04-09T14:19:29;15.00;;;13.50;;
26435;SDS011;15351;52.408;16.826;2023-04-09T14:22:10;16.20;;;13.80;;
26435;SDS011;15351;52.408;16.826;2023-04-09T14:25:38;15.60;;;14.00;;
26435;SDS011;15351;52.408;16.826;2023-04-09T14:29:35;16.40;;;14.70;;
26435;SDS011;15351;52.408;16.826;2023-04-09T14:32:19;18.40;;;14.90;;
26435;SDS011;15351;52.408;16.826;2023-04-09T14:39:11;15.90;;;13.90;;
26435;SDS011;15351;52.408;16.826;2023-04-09T14:41:37;16.40;;;14.70;;
26435;SDS011;15351;52.408;16.826;2023-04-09T14:44:06;15.90;;;14.20;;
26435;SDS011;15351;52.408;16.826;2023-04-09T14:46:36;16.50;;;14.80;;
26435;SDS011;15351;52.408;16.826;2023-04-09T14:49:08;16.80;;;15.00;;
26435;SDS011;15351;52.408;16.826;2023-04-09T14:51:35;17.60;;;15.00;;
26435;SDS011;15351;52.408;16.826;2023-04-09T14:54:02;15.50;;;13.40;;
26435;SDS011;15351;52.408;16.826;2023-04-09T14:56:28;13.60;;;12.20;;
26435;SDS011;15351;52.408;16.826;2023-04-09T14:59:03;15.10;;;13.50;;
26435;SDS011;15351;52.408;16.826;2023-04-09T15:04:57;15.30;;;13.70;;
26435;SDS011;15351;52.408;16.826;2023-04-09T15:07:25;15.00;;;13.50;;
26435;SDS011;15351;52.408;16.826;2023-04-09T15:10:29;17.40;;;14.20;;
26435;SDS011;15351;52.408;16.826;2023-04-09T15:13:21;15.60;;;13.80;;
26435;SDS011;15351;52.408;16.826;2023-04-09T15:15:54;15.10;;;13.30;;
26435;SDS011;15351;52.408;16.826;2023-04-09T15:18:42;15.10;;;13.50;;
26435;SDS011;15351;52.408;16.826;2023-04-09T15:21:21;16.10;;;14.00;;
26435;SDS011;15351;52.408;16.826;2023-04-09T15:23:53;15.70;;;14.10;;
26435;SDS011;15351;52.408;16.826;2023-04-09T15:26:41;17.60;;;14.20;;
26435;SDS011;15351;52.408;16.826;2023-04-09T15:29:26;14.90;;;12.80;;
26435;SDS011;15351;52.408;16.826;2023-04-09T15:31:57;15.40;;;13.50;;
26435;SDS011;15351;52.408;16.826;2023-04-09T15:34:23;15.90;;;14.20;;
26435;SDS011;15351;52.408;16.826;2023-04-09T15:36:53;16.90;;;14.90;;
26435;SDS011;15351;52.408;16.826;2023-04-09T15:39:21;16.00;;;14.20;;
26435;SDS011;15351;52.408;16.826;2023-04-09T15:41:57;18.00;;;13.90;;
26435;SDS011;15351;52.408;16.826;2023-04-09T15:44:31;15.20;;;13.50;;
26435;SDS011;15351;52.408;16.826;2023-04-09T15:46:58;16.20;;;14.50;;
26435;SDS011;15351;52.408;16.826;2023-04-09T15:49:51;16.00;;;14.00;;
26435;SDS011;15351;52.408;16.826;2023-04-09T15:52:48;14.40;;;12.90;;
26435;SDS011;15351;52.408;16.826;2023-04-09T15:55:20;14.80;;;12.20;;
26435;SDS011;15351;52.408;16.826;2023-04-09T15:58:04;12.90;;;11.30;;
26435;SDS011;15351;52.408;16.826;2023-04-09T16:00:36;14.00;;;11.00;;
26435;SDS011;15351;52.408;16.826;2023-04-09T16:03:13;12.80;;;11.30;;
26435;SDS011;15351;52.408;16.826;2023-04-09T16:06:03;13.40;;;11.50;;
26435;SDS011;15351;52.408;16.826;2023-04-09T16:08:33;13.80;;;12.10;;
26435;SDS011;15351;52.408;16.826;2023-04-09T16:11:19;16.80;;;11.40;;
26435;SDS011;15351;52.408;16.826;2023-04-09T16:13:46;12.90;;;11.60;;
26435;SDS011;15351;52.408;16.826;2023-04-09T16:16:13;13.50;;;11.50;;
26435;SDS011;15351;52.408;16.826;2023-04-09T16:18:50;14.50;;;12.10;;
26435;SDS011;15351;52.408;16.826;2023-04-09T16:21:18;14.10;;;12.40;;
26435;SDS011;15351;52.408;16.826;2023-04-09T16:23:47;15.80;;;12.70;;
26435;SDS011;15351;52.408;16.826;2023-04-09T16:26:15;15.70;;;12.50;;
26435;SDS011;15351;52.408;16.826;2023-04-09T16:28:42;13.10;;;11.70;;
26435;SDS011;15351;52.408;16.826;2023-04-09T16:31:19;14.40;;;12.80;;
26435;SDS011;15351;52.408;16.826;2023-04-09T16:33:46;15.60;;;13.90;;
26435;SDS011;15351;52.408;16.826;2023-04-09T16:36:45;15.40;;;13.50;;
26435;SDS011;15351;52.408;16.826;2023-04-09T16:39:43;17.30;;;14.40;;
26435;SDS011;15351;52.408;16.826;2023-04-09T16:42:10;17.80;;;14.70;;
26435;SDS011;15351;52.408;16.826;2023-04-09T16:44:37;15.70;;;14.00;;
26435;SDS011;15351;52.408;16.826;2023-04-09T16:47:03;15.90;;;14.20;;
26435;SDS011;15351;52.408;16.826;2023-04-09T16:49:41;15.70;;;13.90;;
26435;SDS011;15351;52.408;16.826;2023-04-09T16:52:12;15.70;;;13.90;;
26435;SDS011;15351;52.408;16.826;2023-04-09T16:54:41;15.80;;;13.50;;
26435;SDS011;15351;52.408;16.826;2023-04-09T16:57:13;19.80;;;15.00;;
26435;SDS011;15351;52.408;16.826;2023-04-09T17:00:24;16.80;;;14.90;;
26435;SDS011;15351;52.408;16.826;2023-04-09T17:03:00;17.80;;;15.60;;
26435;SDS011;15351;52.408;16.826;2023-04-09T17:05:40;18.80;;;15.70;;
26435;SDS011;15351;52.408;16.826;2023-04-09T17:08:13;26.60;;;18.40;;
26435;SDS011;15351;52.408;16.826;2023-04-09T17:11:01;23.40;;;18.20;;
26435;SDS011;15351;52.408;16.826;2023-04-09T17:13:31;21.50;;;16.90;;
26435;SDS011;15351;52.408;16.826;2023-04-09T17:16:37;19.60;;;16.70;;
26435;SDS011;15351;52.408;16.826;2023-04-09T17:19:04;28.50;;;19.70;;
26435;SDS011;15351;52.408;16.826;2023-04-09T17:21:31;35.40;;;21.90;;
26435;SDS011;15351;52.408;16.826;2023-04-09T17:24:04;31.00;;;22.40;;
26435;SDS011;15351;52.408;16.826;2023-04-09T17:26:41;27.10;;;20.70;;
26435;SDS011;15351;52.408;16.826;2023-04-09T17:29:29;25.30;;;20.00;;
26435;SDS011;15351;52.408;16.826;2023-04-09T17:31:57;27.80;;;21.10;;
26435;SDS011;15351;52.408;16.826;2023-04-09T17:34:24;27.30;;;20.50;;
26435;SDS011;15351;52.408;16.826;2023-04-09T17:36:51;26.10;;;20.60;;
26435;SDS011;15351;52.408;16.826;2023-04-09T17:39:38;27.80;;;22.00;;
26435;SDS011;15351;52.408;16.826;2023-04-09T17:42:04;25.10;;;21.00;;
26435;SDS011;15351;52.408;16.826;2023-04-09T17:44:57;28.40;;;20.50;;
26435;SDS011;15351;52.408;16.826;2023-04-09T17:47:28;25.10;;;18.90;;
26435;SDS011;15351;52.408;16.826;2023-04-09T17:49:55;21.70;;;18.20;;
26435;SDS011;15351;52.408;16.826;2023-04-09T17:52:22;22.50;;;18.90;;
26435;SDS011;15351;52.408;16.826;2023-04-09T17:54:52;22.90;;;19.00;;
26435;SDS011;15351;52.408;16.826;2023-04-09T17:57:31;26.00;;;19.60;;
26435;SDS011;15351;52.408;16.826;2023-04-09T18:00:33;24.40;;;19.40;;
26435;SDS011;15351;52.408;16.826;2023-04-09T18:03:06;21.10;;;17.80;;
26435;SDS011;15351;52.408;16.826;2023-04-09T18:05:44;22.30;;;19.10;;
26435;SDS011;15351;52.408;16.826;2023-04-09T18:11:50;26.00;;;20.30;;
26435;SDS011;15351;52.408;16.826;2023-04-09T18:14:26;28.70;;;21.40;;
26435;SDS011;15351;52.408;16.826;2023-04-09T18:16:56;25.00;;;22.10;;
26435;SDS011;15351;52.408;16.826;2023-04-09T18:19:38;29.90;;;23.90;;
26435;SDS011;15351;52.408;16.826;2023-04-09T18:22:13;30.70;;;24.10;;
26435;SDS011;15351;52.408;16.826;2023-04-09T18:24:50;30.00;;;22.50;;
26435;SDS011;15351;52.408;16.826;2023-04-09T18:27:22;27.40;;;21.80;;
26435;SDS011;15351;52.408;16.826;2023-04-09T18:30:06;26.90;;;22.80;;
26435;SDS011;15351;52.408;16.826;2023-04-09T18:40:29;32.70;;;24.70;;
26435;SDS011;15351;52.408;16.826;2023-04-09T18:44:16;35.30;;;27.50;;
26435;SDS011;15351;52.408;16.826;2023-04-09T19:01:19;37.00;;;27.10;;
26435;SDS011;15351;52.408;16.826;2023-04-09T19:36:47;29.30;;;23.60;;
26435;SDS011;15351;52.408;16.826;2023-04-09T19:40:16;31.30;;;21.90;;
26435;SDS011;15351;52.408;16.826;2023-04-09T19:43:15;31.70;;;21.80;;
26435;SDS011;15351;52.408;16.826;2023-04-09T19:46:03;27.70;;;20.90;;
26435;SDS011;15351;52.408;16.826;2023-04-09T19:48:41;26.70;;;21.80;;
26435;SDS011;15351;52.408;16.826;2023-04-09T20:00:38;27.70;;;22.50;;
26435;SDS011;15351;52.408;16.826;2023-04-09T20:03:22;28.80;;;23.40;;
26435;SDS011;15351;52.408;16.826;2023-04-09T20:13:35;30.40;;;24.80;;
26435;SDS011;15351;52.408;16.826;2023-04-09T20:20:33;35.60;;;26.00;;
26435;SDS011;15351;52.408;16.826;2023-04-09T20:26:38;31.80;;;24.90;;
26435;SDS011;15351;52.408;16.826;2023-04-09T20:33:11;33.40;;;24.30;;